Time;durP1;ratioP1;P1;durP2;ratioP2;P2;SDS_P1;SDS_P2;PMS_P1;PMS_P2;Temp;Humidity;BMP_temperature;BMP_pressure;BME280_temperature;BME280_humidity;BME280_pressure;Samples;Min_cycle;Max_cycle;Signal;HPM_P1;HPM_P2
2022/06/13 00:00:09;;;;;;;;;;;;;;;19.94;100.00;99795.93;1703448;82;21549;-55
2022/06/13 00:02:36;;;;;;;18.87;10.20;;;;;;;19.90;100.00;99789.56;1706858;82;20201;-57
2022/06/13 00:05:05;;;;;;;19.03;13.43;;;;;;;19.85;100.00;99787.69;1727386;81;21026;-59
2022/06/13 00:07:32;;;;;;;20.70;14.10;;;;;;;19.80;100.00;99792.92;1746501;81;22144;-55
2022/06/13 00:10:00;;;;;;;18.83;13.40;;;;;;;19.76;100.00;99795.81;1750294;81;21151;-55
2022/06/13 00:12:28;;;;;;;22.40;13.77;;;;;;;19.78;100.00;99797.69;1737923;80;21034;-57
2022/06/13 00:14:56;;;;;;;18.33;13.40;;;;;;;19.55;100.00;99793.53;1738484;80;21029;-57
2022/06/13 00:17:24;;;;;;;18.93;14.20;;;;;;;19.53;100.00;99794.30;1712384;81;21521;-55
2022/06/13 00:19:51;;;;;;;21.20;14.63;;;;;;;19.40;100.00;99800.03;1741143;81;20983;-55
2022/06/13 00:22:19;;;;;;;17.33;11.67;;;;;;;19.38;100.00;99805.55;1727741;80;21001;-54
2022/06/13 00:24:48;;;;;;;17.43;11.63;;;;;;;19.35;100.00;99800.76;1741984;80;22354;-62
2022/06/13 00:27:15;;;;;;;18.93;11.30;;;;;;;19.29;100.00;99803.11;1722011;81;20894;-56
2022/06/13 00:29:44;;;;;;;17.40;11.47;;;;;;;19.20;100.00;99805.38;1729967;80;21945;-55
2022/06/13 00:32:11;;;;;;;14.70;10.20;;;;;;;19.15;100.00;99808.52;1722059;81;20934;-55
2022/06/13 00:34:38;;;;;;;14.93;10.13;;;;;;;19.07;100.00;99808.98;1730691;80;21248;-61
2022/06/13 00:37:05;;;;;;;14.87;9.80;;;;;;;19.03;100.00;99807.36;1720596;80;20974;-63
2022/06/13 00:39:34;;;;;;;11.97;9.50;;;;;;;18.94;100.00;99808.34;1741389;81;22426;-56
2022/06/13 00:42:01;;;;;;;14.30;10.50;;;;;;;18.98;100.00;99803.84;1722430;81;21407;-54
2022/06/13 00:44:32;;;;;;;14.23;11.10;;;;;;;18.93;100.00;99802.75;1738167;81;21082;-56
2022/06/13 00:46:59;;;;;;;14.03;10.98;;;;;;;18.97;100.00;99803.06;1740659;81;22199;-63
2022/06/13 00:49:34;;;;;;;14.43;10.23;;;;;;;18.92;100.00;99805.66;1680028;82;20984;-56
2022/06/13 00:52:08;;;;;;;9.87;8.53;;;;;;;19.01;100.00;99811.28;1749294;80;20971;-56
2022/06/13 00:54:36;;;;;;;11.50;8.53;;;;;;;19.04;100.00;99811.58;1723764;80;21040;-57
2022/06/13 00:57:05;;;;;;;12.73;10.37;;;;;;;19.01;100.00;99812.60;1734829;81;22048;-62
2022/06/13 00:59:33;;;;;;;10.40;9.20;;;;;;;19.05;100.00;99814.49;1719275;82;22111;-56
2022/06/13 01:02:00;;;;;;;11.47;8.73;;;;;;;19.05;100.00;99816.34;1722845;80;21045;-55
2022/06/13 01:04:29;;;;;;;12.83;9.77;;;;;;;19.02;100.00;99811.58;1737295;81;21046;-58
2022/06/13 01:06:56;;;;;;;11.67;9.77;;;;;;;19.02;100.00;99812.38;1745830;81;20963;-64
2022/06/13 01:11:16;;;;;;;11.27;9.50;;;;;;;19.02;100.00;99804.45;1735421;81;20988;-57
2022/06/13 01:11:54;;;;;;;11.53;8.97;;;;;;;19.09;100.00;99808.19;1741569;81;21164;-57
2022/06/13 01:14:48;;;;;;;10.87;8.67;;;;;;;19.02;100.00;99808.41;1724759;80;21004;-64
2022/06/13 01:17:28;;;;;;;10.97;8.27;;;;;;;19.07;100.00;99806.33;1729468;81;21476;-56
2022/06/13 01:20:16;;;;;;;9.57;7.47;;;;;;;19.18;100.00;99807.50;1736361;80;20947;-61
2022/06/13 01:23:13;;;;;;;9.63;6.73;;;;;;;19.18;100.00;99807.50;1743011;81;21417;-58
2022/06/13 01:26:22;;;;;;;8.90;6.83;;;;;;;19.18;100.00;99806.70;1717888;82;21595;-58
2022/06/13 01:29:12;;;;;;;7.93;6.73;;;;;;;19.15;100.00;99807.99;1719280;81;20990;-56
2022/06/13 01:31:58;;;;;;;8.47;6.90;;;;;;;19.22;100.00;99809.64;1735781;80;21881;-58
2022/06/13 01:34:39;;;;;;;9.50;6.47;;;;;;;19.35;100.00;99815.82;1731646;81;20986;-58
2022/06/13 01:37:20;;;;;;;8.63;6.50;;;;;;;19.39;100.00;99816.91;1731634;80;21470;-56
2022/06/13 01:40:13;;;;;;;8.83;6.00;;;;;;;19.52;100.00;99818.36;1725311;80;21506;-60
2022/06/13 01:43:16;;;;;;;8.43;5.50;;;;;;;19.52;100.00;99813.86;1718361;82;21351;-60
2022/06/13 01:45:54;;;;;;;8.33;6.27;;;;;;;19.56;100.00;99826.05;1703033;81;21360;-65
2022/06/13 01:48:37;;;;;;;9.53;6.70;;;;;;;19.65;100.00;99833.28;1732356;81;21022;-59
2022/06/13 01:51:10;;;;;;;7.73;5.30;;;;;;;19.69;100.00;99834.37;1720718;81;20965;-58
2022/06/13 01:53:52;;;;;;;7.73;6.13;;;;;;;19.77;100.00;99838.92;1725820;80;21179;-59
2022/06/13 01:56:23;;;;;;;6.93;4.80;;;;;;;19.82;100.00;99835.01;1711203;81;21076;-57
2022/06/13 01:58:59;;;;;;;7.93;5.73;;;;;;;19.78;100.00;99836.56;1727091;80;20956;-57
2022/06/13 02:01:41;;;;;;;7.23;4.77;;;;;;;19.84;100.00;99830.24;1723113;80;21244;-57
2022/06/13 02:04:19;;;;;;;9.80;5.17;;;;;;;19.90;100.00;99839.81;1729093;81;21064;-63
2022/06/13 02:06:51;;;;;;;6.23;4.37;;;;;;;19.94;100.00;99838.26;1741216;81;21474;-58
2022/06/13 02:09:24;;;;;;;7.30;4.53;;;;;;;19.99;100.00;99844.89;1708922;82;20991;-57
2022/06/13 02:11:53;;;;;;;5.53;4.00;;;;;;;20.02;100.00;99836.98;1734032;81;21017;-61
2022/06/13 02:14:36;;;;;;;7.53;4.53;;;;;;;19.99;100.00;99846.74;1701265;83;21523;-65
2022/06/13 02:17:10;;;;;;;6.47;4.80;;;;;;;20.01;100.00;99848.09;1720137;81;20996;-56
2022/06/13 02:19:44;;;;;;;8.90;4.53;;;;;;;20.03;100.00;99853.91;1744247;81;21137;-57
2022/06/13 02:22:27;;;;;;;6.70;5.17;;;;;;;20.09;100.00;99852.91;1754711;81;21038;-58
2022/06/13 02:25:08;;;;;;;7.87;4.73;;;;;;;20.08;100.00;99860.58;1705884;82;21106;-56
2022/06/13 02:27:37;;;;;;;6.62;4.80;;;;;;;20.12;100.00;99859.55;1742955;81;20978;-58
2022/06/13 02:30:09;;;;;;;9.93;5.37;;;;;;;20.15;100.00;99854.54;1713113;82;21068;-56
2022/06/13 02:33:03;;;;;;;7.97;4.90;;;;;;;20.22;100.00;99857.47;1737658;81;21217;-63
2022/06/13 02:35:38;;;;;;;7.40;5.07;;;;;;;20.21;100.00;99854.03;1721694;82;20841;-56
2022/06/13 02:38:25;;;;;;;7.50;4.97;;;;;;;20.16;100.00;99850.04;1741231;81;20972;-65
2022/06/13 02:41:08;;;;;;;7.00;4.63;;;;;;;20.21;100.00;99851.91;1724958;82;20995;-63
2022/06/13 02:44:01;;;;;;;6.97;5.33;;;;;;;20.14;100.00;99840.22;1732423;81;21566;-57
2022/06/13 02:46:40;;;;;;;7.20;4.60;;;;;;;20.04;100.00;99838.83;1736996;81;21239;-65
2022/06/13 02:49:21;;;;;;;6.80;5.20;;;;;;;20.10;100.00;99839.94;1730285;81;21070;-58
2022/06/13 02:52:00;;;;;;;;;;;;;;;20.11;100.00;99838.08;1743237;81;21947;-57
2022/06/13 02:54:57;;;;;;;5.47;4.03;;;;;;;20.17;100.00;99838.39;1741341;81;20099;-58
2022/06/13 02:57:50;;;;;;;6.00;4.03;;;;;;;20.18;100.00;99834.69;1725198;81;21503;-56
2022/06/13 03:00:48;;;;;;;5.87;3.87;;;;;;;20.16;100.00;99832.84;1743930;81;21799;-60
2022/06/13 03:03:36;;;;;;;5.10;3.90;;;;;;;20.15;100.00;99835.19;1722317;81;21011;-63
2022/06/13 03:06:23;;;;;;;5.23;4.17;;;;;;;20.16;100.00;99821.72;1712722;82;20996;-57
2022/06/13 03:08:58;;;;;;;5.37;3.83;;;;;;;20.25;100.00;99828.64;1702190;82;21508;-58
2022/06/13 03:11:40;;;;;;;4.83;3.47;;;;;;;20.26;100.00;99821.48;1716483;82;21427;-64
2022/06/13 03:14:28;;;;;;;;;;;;;;;20.26;100.00;99824.93;1710211;83;21164;-57
2022/06/13 03:17:12;;;;;;;5.30;3.70;;;;;;;20.21;100.00;99825.45;1705934;82;20393;-61
2022/06/13 03:19:49;;;;;;;4.90;3.47;;;;;;;20.28;100.00;99822.84;1716718;82;21493;-56
2022/06/13 03:22:39;;;;;;;4.10;3.23;;;;;;;20.39;100.00;99821.83;1705092;82;20990;-58
2022/06/13 03:25:30;;;;;;;5.60;3.60;;;;;;;20.40;100.00;99816.00;1711947;82;21007;-57
2022/06/13 03:28:15;;;;;;;8.25;2.90;;;;;;;20.36;100.00;99809.11;1706434;82;21440;-56
2022/06/13 03:30:47;;;;;;;5.47;3.67;;;;;;;20.37;100.00;99805.93;1688449;82;21073;-57
2022/06/13 03:36:19;;;;;;;5.03;3.13;;;;;;;20.52;100.00;99814.49;1724360;82;21598;-57
2022/06/13 03:39:03;;;;;;;3.80;2.37;;;;;;;20.67;100.00;99821.16;1728422;82;21055;-64
2022/06/13 03:41:34;;;;;;;5.53;3.27;;;;;;;20.78;100.00;99816.70;1720419;82;21253;-58
2022/06/13 03:44:09;;;;;;;4.07;2.70;;;;;;;20.98;100.00;99818.59;1720554;82;21079;-56
2022/06/13 03:46:44;;;;;;;4.07;2.90;;;;;;;21.11;100.00;99816.23;1722334;82;21044;-61
2022/06/13 03:49:35;;;;;;;6.30;2.97;;;;;;;21.25;100.00;99824.98;1712965;82;21381;-56
2022/06/13 03:52:04;;;;;;;3.63;2.50;;;;;;;21.35;100.00;99826.36;1709809;82;21004;-56
2022/06/13 03:54:45;;;;;;;4.43;2.90;;;;;;;21.45;100.00;99828.23;1680067;84;21257;-61
2022/06/13 03:57:32;;;;;;;;;;;;;;;21.53;100.00;99823.72;1721461;82;21012;-55
2022/06/13 04:00:13;;;;;;;4.87;3.40;;;;;;;21.57;100.00;99826.89;1716765;82;20149;-59
2022/06/13 04:02:41;;;;;;;5.40;3.27;;;;;;;21.68;100.00;99823.70;1724901;82;21030;-55
2022/06/13 04:05:20;;;;;;;4.83;2.30;;;;;;;21.87;100.00;99817.31;1729179;81;22444;-55
2022/06/13 04:07:48;;;;;;;6.30;3.00;;;;;;;22.04;100.00;99813.02;1727184;81;21766;-64
2022/06/13 04:10:17;;;;;;;5.20;3.00;;;;;;;22.11;100.00;99810.34;1739591;81;21489;-56
2022/06/13 04:13:10;;;;;;;3.73;2.40;;;;;;;22.17;100.00;99809.84;1704573;82;21454;-55
2022/06/13 04:15:56;;;;;;;4.33;2.90;;;;;;;22.18;100.00;99813.28;1736949;81;21477;-57
2022/06/13 04:18:54;;;;;;;4.57;2.90;;;;;;;22.18;100.00;99800.80;1745106;81;21098;-55
2022/06/13 04:21:32;;;;;;;4.63;3.07;;;;;;;22.26;100.00;99801.56;1730992;80;21241;-57
2022/06/13 04:24:27;;;;;;;5.20;3.13;;;;;;;22.25;100.00;99798.66;1745113;81;21494;-55
2022/06/13 04:27:06;;;;;;;4.43;3.30;;;;;;;22.27;100.00;99797.84;1660067;82;21125;-55
2022/06/13 04:29:41;;;;;;;8.00;5.67;;;;;;;22.40;100.00;99797.02;1740691;81;21030;-62
2022/06/13 04:32:12;;;;;;;6.00;3.97;;;;;;;22.45;100.00;99797.77;1692156;83;21101;-57
2022/06/13 04:34:45;;;;;;;6.53;3.98;;;;;;;22.36;100.00;99806.06;1724990;81;22132;-57
2022/06/13 04:37:12;;;;;;;7.27;4.03;;;;;;;22.27;100.00;99804.48;1730352;81;21007;-55
2022/06/13 04:39:39;;;;;;;5.53;3.80;;;;;;;22.28;100.00;99805.30;1709183;81;21148;-63
2022/06/13 04:42:08;;;;;;;5.00;3.43;;;;;;;22.33;100.00;99799.95;1678543;83;21014;-56
2022/06/13 04:44:36;;;;;;;5.37;3.40;;;;;;;22.43;100.00;99800.46;1701892;81;21496;-56
2022/06/13 04:47:04;;;;;;;4.07;3.60;;;;;;;22.48;100.00;99797.23;1730381;81;21163;-55
2022/06/13 04:49:38;;;;;;;3.33;2.63;;;;;;;22.50;100.00;99797.77;1716745;81;21553;-57
2022/06/13 04:52:09;;;;;;;5.37;2.97;;;;;;;22.52;100.00;99794.83;1726937;80;21809;-57
2022/06/13 04:54:50;;;;;;;4.28;2.85;;;;;;;22.64;100.00;99794.50;1683568;82;21108;-55
2022/06/13 04:57:18;;;;;;;5.33;3.20;;;;;;;22.87;100.00;99802.34;1698988;82;21157;-64
2022/06/13 04:59:47;;;;;;;3.80;2.83;;;;;;;23.27;100.00;99800.77;1737597;81;21294;-55
2022/06/13 05:02:23;;;;;;;4.23;2.70;;;;;;;23.50;100.00;99807.77;1714826;82;20951;-55
2022/06/13 05:04:51;;;;;;;3.97;2.90;;;;;;;23.86;100.00;99814.89;1743165;81;21504;-56
2022/06/13 05:07:21;;;;;;;4.70;3.10;;;;;;;24.17;100.00;99808.72;1681894;83;20928;-56
2022/06/13 05:09:56;;;;;;;11.73;3.73;;;;;;;24.45;100.00;99808.40;1691327;83;21367;-55
2022/06/13 05:12:43;;;;;;;4.07;2.90;;;;;;;24.81;100.00;99796.45;1705228;82;21251;-56
2022/06/13 05:15:21;;;;;;;5.50;3.73;;;;;;;25.13;100.00;99801.09;1677118;84;21047;-56
2022/06/13 05:18:13;;;;;;;4.57;3.27;;;;;;;25.39;100.00;99801.48;1702531;82;21076;-56
2022/06/13 05:21:28;;;;;;;7.03;3.40;;;;;;;25.46;100.00;99800.02;1700558;82;20990;-55
2022/06/13 05:24:06;;;;;;;5.10;3.70;;;;;;;25.42;100.00;99810.21;1721465;82;21134;-58
2022/06/13 05:26:32;;;;;;;6.80;3.43;;;;;;;25.43;100.00;99809.94;1688283;84;21254;-56
2022/06/13 05:29:00;;;;;;;5.47;3.70;;;;;;;25.48;100.00;99806.38;1720408;82;20949;-55
2022/06/13 05:31:28;;;;;;;5.00;3.57;;;;;;;25.35;100.00;99811.94;1694978;83;21062;-64
2022/06/13 05:33:55;;;;;;;4.63;3.60;;;;;;;25.47;100.00;99808.81;1712703;83;21539;-56
2022/06/13 05:36:24;;;;;;;5.70;3.63;;;;;;;25.48;100.00;99799.16;1716264;82;21534;-56
2022/06/13 05:38:57;;;;;;;7.37;4.30;;;;;;;25.55;100.00;99810.02;1725615;82;22528;-55
2022/06/13 05:41:24;;;;;;;7.73;4.63;;;;;;;25.62;100.00;99810.42;1704467;83;21074;-64
2022/06/13 05:43:51;;;;;;;6.87;4.53;;;;;;;25.63;100.00;99815.45;1702548;83;21546;-63
2022/06/13 05:46:30;;;;;;;6.93;4.10;;;;;;;25.53;100.00;99808.95;1721837;82;20937;-57
2022/06/13 05:48:57;;;;;;;6.43;4.17;;;;;;;25.46;100.00;99810.69;1687859;84;21141;-59
2022/06/13 05:51:24;;;;;;;5.33;3.93;;;;;;;25.52;100.00;99810.59;1721775;82;21156;-65
2022/06/13 05:53:52;;;;;;;7.97;5.03;;;;;;;25.59;100.00;99805.67;1703359;83;21612;-58
2022/06/13 05:56:20;;;;;;;5.60;4.17;;;;;;;25.73;100.00;99801.16;1713435;82;21008;-64
2022/06/13 05:58:48;;;;;;;186.03;81.57;;;;;;;25.87;100.00;99801.18;1717623;82;20984;-55
2022/06/13 06:01:15;;;;;;;54.10;28.50;;;;;;;25.86;100.00;99791.05;1704551;83;21129;-64
2022/06/13 06:03:42;;;;;;;18.50;11.20;;;;;;;25.91;100.00;99789.63;1717999;82;21685;-58
2022/06/13 06:06:16;;;;;;;11.07;7.13;;;;;;;25.84;100.00;99794.57;1711721;83;21393;-57
2022/06/13 06:08:43;;;;;;;10.63;7.57;;;;;;;25.95;100.00;99793.30;1719171;82;21072;-57
2022/06/13 06:11:10;;;;;;;9.80;7.00;;;;;;;26.08;100.00;99790.36;1712805;83;20980;-66
2022/06/13 06:13:37;;;;;;;9.83;6.63;;;;;;;26.22;100.00;99794.38;1719796;82;21601;-59
2022/06/13 06:16:06;;;;;;;10.72;7.85;;;;;;;26.50;100.00;99790.35;1702517;83;21364;-58
2022/06/13 06:18:33;;;;;;;8.70;6.83;;;;;;;26.63;100.00;99786.32;1722288;82;21070;-59
2022/06/13 06:21:02;;;;;;;9.13;7.22;;;;;;;26.90;100.00;99785.44;1688533;83;20968;-57
2022/06/13 06:23:29;;;;;;;9.83;7.17;;;;;;;27.19;100.00;99780.22;1692034;83;20994;-59
2022/06/13 06:25:58;;;;;;;15.35;7.35;;;;;;;27.42;100.00;99782.33;1677549;84;21449;-59
2022/06/13 06:28:26;;;;;;;9.63;6.42;;;;;;;27.35;100.00;99782.78;1678039;84;21317;-58
2022/06/13 06:30:56;;;;;;;8.75;6.70;;;;;;;27.27;100.00;99783.50;1700878;82;20982;-57
2022/06/13 06:33:25;;;;;;;;;;;;;;;27.29;100.00;99780.53;1707022;83;21020;-62
2022/06/13 06:35:52;;;;;;;6.87;5.53;;;;;;;27.22;100.00;99780.17;1731453;82;20963;-55
2022/06/13 06:38:23;;;;;;;9.23;6.60;;;;;;;27.13;100.00;99786.26;1729253;82;21501;-55
2022/06/13 06:40:51;;;;;;;8.28;6.20;;;;;;;27.06;100.00;99783.73;1733893;82;21136;-56
2022/06/13 06:43:19;;;;;;;9.25;6.70;;;;;;;27.08;100.00;99786.33;1722262;82;21070;-64
2022/06/13 06:45:47;;;;;;;9.75;6.15;;;;;;;27.00;100.00;99786.28;1732461;82;21632;-55
2022/06/13 06:48:17;;;;;;;8.28;6.08;;;;;;;27.03;100.00;99780.33;1725054;82;21015;-63
2022/06/13 06:50:45;;;;;;;9.00;5.60;;;;;;;27.19;100.00;99788.80;1733440;82;21458;-54
2022/06/13 06:53:13;;;;;;;8.55;5.95;;;;;;;27.04;100.00;99789.38;1728327;82;21346;-56
2022/06/13 07:01:13;;;;;;;7.00;5.22;;;;;;;26.93;100.00;99788.84;1721667;82;21061;-57
2022/06/13 07:03:40;;;;;;;8.18;5.33;;;;;;;26.95;100.00;99786.41;1717088;82;21067;-57
2022/06/13 07:06:07;;;;;;;7.80;5.47;;;;;;;26.96;100.00;99786.64;1736618;81;21240;-59
2022/06/13 07:08:36;;;;;;;7.37;4.92;;;;;;;27.02;100.00;99788.12;1721279;82;21354;-60
2022/06/13 07:13:52;;;;;;;6.12;4.58;;;;;;;27.03;100.00;99793.70;1733105;82;21067;-63
2022/06/13 07:16:20;;;;;;;7.22;4.30;;;;;;;27.11;100.00;99796.46;1732971;82;21158;-63
2022/06/13 07:18:50;;;;;;;6.62;4.80;;;;;;;27.16;100.00;99795.55;1736694;82;20877;-62
2022/06/13 07:21:17;;;;;;;6.35;4.25;;;;;;;27.25;100.00;99795.06;1733870;82;21000;-59
2022/06/13 07:23:44;;;;;;;5.85;4.40;;;;;;;27.38;100.00;99794.19;1738100;82;21041;-57
2022/06/13 07:26:11;;;;;;;5.90;3.98;;;;;;;27.47;100.00;99794.81;1727259;82;20991;-58
2022/06/13 07:28:38;;;;;;;5.62;3.90;;;;;;;27.58;100.00;99794.80;1723327;82;21100;-59
2022/06/13 07:31:06;;;;;;;7.40;4.25;;;;;;;27.74;100.00;99796.00;1714836;82;21341;-59
2022/06/13 07:33:34;;;;;;;7.15;4.12;;;;;;;27.93;100.00;99799.77;1736170;82;21020;-58
2022/06/13 07:36:02;;;;;;;6.37;3.35;;;;;;;28.12;100.00;99799.52;1720342;82;21505;-64
2022/06/13 07:38:29;;;;;;;5.30;3.70;;;;;;;28.28;93.94;99795.84;1720760;82;21795;-58
2022/06/13 07:40:59;;;;;;;6.35;4.50;;;;;;;28.36;89.37;99803.89;1719064;82;22067;-58
2022/06/13 07:43:33;;;;;;;5.67;3.70;;;;;;;28.32;88.77;99801.61;1743545;81;21364;-58
2022/06/13 07:46:02;;;;;;;5.05;3.62;;;;;;;28.53;93.92;99802.39;1750551;81;20947;-57
2022/06/13 07:48:29;;;;;;;5.45;3.42;;;;;;;28.74;84.77;99811.39;1754020;81;21264;-59
2022/06/13 07:50:56;;;;;;;4.62;3.42;;;;;;;28.73;85.42;99811.16;1739335;79;21459;-57
2022/06/13 07:53:24;;;;;;;5.20;3.50;;;;;;;28.71;83.62;99809.33;1753458;81;21039;-58
2022/06/13 07:55:51;;;;;;;7.97;3.67;;;;;;;28.60;82.73;99809.39;1761232;79;21144;-59
2022/06/13 07:58:22;;;;;;;5.50;3.42;;;;;;;28.48;86.40;99811.91;1745044;79;21368;-64
2022/06/13 08:00:50;;;;;;;7.05;3.92;;;;;;;28.44;85.46;99810.96;1758117;81;23723;-58
2022/06/13 08:03:20;;;;;;;8.23;3.75;;;;;;;28.46;87.41;99808.77;1757308;79;21499;-57
2022/06/13 08:05:47;;;;;;;5.07;3.43;;;;;;;28.48;84.62;99811.36;1737581;79;21002;-66
2022/06/13 08:08:14;;;;;;;7.53;3.40;;;;;;;28.36;86.07;99810.59;1756826;81;22281;-59
2022/06/13 08:10:41;;;;;;;5.03;3.75;;;;;;;28.36;86.84;99807.13;1758640;81;21065;-54
2022/06/13 08:13:14;;;;;;;8.28;3.65;;;;;;;28.24;91.58;99803.72;1751666;79;21034;-56
2022/06/13 08:15:42;;;;;;;6.65;3.62;;;;;;;28.22;91.13;99801.89;1718082;81;21577;-59
2022/06/13 08:18:13;;;;;;;6.00;3.98;;;;;;;28.11;88.69;99813.47;1677200;84;21144;-58
2022/06/13 08:20:41;;;;;;;7.67;3.90;;;;;;;28.01;92.54;99810.28;1696996;82;21620;-57
2022/06/13 08:23:09;;;;;;;4.90;3.60;;;;;;;27.80;98.90;99812.70;1733138;81;21030;-59
2022/06/13 08:25:37;;;;;;;8.88;4.12;;;;;;;27.74;100.00;99812.59;1713426;81;20973;-56
2022/06/13 08:28:04;;;;;;;5.45;3.77;;;;;;;27.65;100.00;99811.18;1730041;81;20946;-57
2022/06/13 08:30:56;;;;;;;6.55;4.20;;;;;;;27.60;100.00;99818.80;1733982;81;21284;-56
2022/06/13 08:33:23;;;;;;;5.37;3.72;;;;;;;27.53;100.00;99814.98;1709966;81;21252;-56
2022/06/13 08:35:50;;;;;;;4.65;3.45;;;;;;;27.29;100.00;99814.77;1720922;82;21062;-63
2022/06/13 08:38:17;;;;;;;4.83;3.52;;;;;;;27.14;100.00;99812.47;1708982;82;21109;-55
2022/06/13 08:41:09;;;;;;;5.10;3.55;;;;;;;27.06;100.00;99807.27;1707195;81;21056;-56
2022/06/13 08:44:23;;;;;;;5.45;3.27;;;;;;;27.02;100.00;99806.84;1714750;81;21026;-62
2022/06/13 08:47:27;;;;;;;5.22;3.65;;;;;;;26.94;100.00;99809.70;1708245;82;21270;-55
2022/06/13 08:50:18;;;;;;;7.35;4.03;;;;;;;26.72;100.00;99805.10;1701888;82;21066;-58
2022/06/13 08:52:50;;;;;;;4.80;3.70;;;;;;;26.77;100.00;99800.18;1734790;81;21375;-56
2022/06/13 08:55:32;;;;;;;5.47;3.52;;;;;;;26.85;100.00;99805.59;1743200;80;20975;-57
2022/06/13 08:58:20;;;;;;;7.58;3.65;;;;;;;26.93;100.00;99804.89;1745361;81;20955;-65
2022/06/13 09:01:01;;;;;;;4.43;3.00;;;;;;;27.07;100.00;99798.69;1678067;82;21328;-57
2022/06/13 09:03:54;;;;;;;3.93;3.10;;;;;;;27.21;100.00;99796.78;1691558;81;21135;-63
2022/06/13 09:07:00;;;;;;;7.58;3.40;;;;;;;27.44;100.00;99798.88;1716249;82;21125;-58
2022/06/13 09:09:55;;;;;;;7.47;3.47;;;;;;;27.57;100.00;99799.33;1706975;82;21087;-57
2022/06/13 09:12:47;;;;;;;4.47;2.95;;;;;;;27.83;100.00;99798.70;1715348;81;21052;-65
2022/06/13 09:15:20;;;;;;;5.20;4.05;;;;;;;27.98;94.98;99800.17;1714333;82;21358;-57
2022/06/13 09:18:22;;;;;;;6.12;3.67;;;;;;;28.17;91.22;99795.34;1717587;81;21002;-58
2022/06/13 09:21:02;;;;;;;4.65;3.10;;;;;;;28.39;93.16;99797.72;1714496;82;20955;-57
2022/06/13 09:23:41;;;;;;;5.90;3.77;;;;;;;28.77;92.17;99798.69;1740379;80;22270;-59
2022/06/13 09:26:22;;;;;;;4.58;3.67;;;;;;;29.07;80.44;99793.50;1717558;82;21082;-57
2022/06/13 09:29:14;;;;;;;5.35;3.80;;;;;;;29.50;79.32;99794.74;1738214;80;21212;-58
2022/06/13 09:31:47;;;;;;;6.25;4.08;;;;;;;30.08;68.86;99796.53;1734090;80;21834;-56
2022/06/13 09:34:35;;;;;;;4.50;2.95;;;;;;;30.42;66.80;99788.02;1728055;81;21063;-62
2022/06/13 09:37:15;;;;;;;4.08;2.80;;;;;;;30.95;64.65;99792.71;1732989;81;21071;-57
2022/06/13 09:39:42;;;;;;;;;;;;;;;31.65;55.74;99788.74;1724331;82;21138;-57
2022/06/13 09:42:38;;;;;;;5.35;3.87;;;;;;;32.02;52.84;99791.48;1739566;81;22423;-57
2022/06/13 09:45:23;;;;;;;5.92;4.25;;;;;;;32.24;51.06;99784.84;1674501;82;21558;-57
2022/06/13 09:48:16;;;;;;;5.00;3.65;;;;;;;32.37;50.66;99785.59;1743184;80;21210;-57
2022/06/13 09:51:00;;;;;;;5.85;4.35;;;;;;;32.60;50.32;99779.92;1745375;81;21023;-58
2022/06/13 09:53:41;;;;;;;3.72;2.60;;;;;;;33.21;48.56;99782.16;1737194;81;21121;-59
2022/06/13 09:56:25;;;;;;;5.87;3.40;;;;;;;33.57;43.05;99779.83;1728770;81;21644;-59
2022/06/13 09:59:20;;;;;;;5.83;3.70;;;;;;;33.84;43.87;99777.58;1747287;80;21817;-57
2022/06/13 10:02:12;;;;;;;4.40;2.70;;;;;;;33.95;42.16;99780.53;1737414;81;21518;-58
2022/06/13 10:05:05;;;;;;;7.58;3.50;;;;;;;34.18;42.04;99779.91;1738185;80;20959;-58
2022/06/13 10:07:47;;;;;;;7.45;2.92;;;;;;;34.14;41.40;99777.90;1722430;82;20997;-57
2022/06/13 10:10:23;;;;;;;6.12;2.40;;;;;;;34.38;42.48;99778.78;1728871;81;21278;-62
2022/06/13 10:13:14;;;;;;;5.40;2.80;;;;;;;34.57;40.70;99773.41;1732488;80;21456;-56
2022/06/13 10:16:12;;;;;;;5.42;3.80;;;;;;;34.61;40.49;99781.02;1713160;82;21134;-56
2022/06/13 10:19:08;;;;;;;4.92;3.55;;;;;;;34.58;40.55;99765.48;1707355;81;20985;-57
2022/06/13 10:21:42;;;;;;;6.25;3.47;;;;;;;34.35;41.55;99771.37;1715497;81;20913;-56
2022/06/13 10:48:43;;;;;;;5.50;3.62;;;;;;;34.40;41.40;99741.34;1740207;81;21617;-56
2022/06/13 10:51:11;;;;;;;7.85;4.37;;;;;;;34.51;40.59;99743.72;1700376;81;21038;-62
2022/06/13 10:53:46;;;;;;;5.62;3.50;;;;;;;34.50;39.16;99734.59;1741396;81;20975;-56
2022/06/13 10:56:40;;;;;;;6.20;4.03;;;;;;;34.39;39.33;99742.45;1732544;81;21039;-64
2022/06/13 10:59:07;;;;;;;5.42;3.90;;;;;;;34.26;40.16;99735.05;1719486;81;20959;-57
2022/06/13 11:01:34;;;;;;;5.12;4.35;;;;;;;34.42;40.36;99734.98;1637449;82;21274;-58
2022/06/13 11:04:09;;;;;;;7.12;4.65;;;;;;;34.31;40.20;99729.92;1729101;80;21106;-57
2022/06/13 11:06:48;;;;;;;4.97;3.80;;;;;;;34.46;39.74;99726.36;1740785;80;21353;-60
2022/06/13 11:09:28;;;;;;;5.30;3.92;;;;;;;34.78;39.18;99725.67;1735818;81;20983;-64
2022/06/13 11:11:58;;;;;;;6.67;4.33;;;;;;;35.33;38.76;99721.40;1709946;81;21022;-57
2022/06/13 11:22:37;;;;;;;5.15;4.08;;;;;;;35.69;37.72;99728.19;1730294;80;21465;-56
2022/06/13 11:22:48;;;;;;;6.00;3.60;;;;;;;36.03;35.91;99716.88;1722097;81;21598;-58
2022/06/13 11:25:26;;;;;;;5.45;4.20;;;;;;;35.99;34.63;99721.47;1701933;82;20999;-57
2022/06/13 11:28:14;;;;;;;6.15;4.40;;;;;;;35.91;35.46;99718.40;1743717;81;21865;-61
2022/06/13 11:30:48;;;;;;;6.67;4.25;;;;;;;35.95;35.58;99713.02;1711196;81;20961;-56
2022/06/13 11:33:33;;;;;;;6.17;4.08;;;;;;;35.89;35.25;99713.94;1729144;81;20910;-57
2022/06/13 11:36:12;;;;;;;6.42;4.97;;;;;;;35.86;35.19;99707.10;1743324;81;21444;-56
2022/06/13 11:39:01;;;;;;;7.90;4.20;;;;;;;35.98;35.41;99707.68;1726407;82;20955;-58
2022/06/13 11:41:42;;;;;;;8.05;5.47;;;;;;;35.91;35.21;99704.06;1722424;81;22456;-57
2022/06/13 11:44:18;;;;;;;8.40;4.72;;;;;;;35.72;35.81;99694.12;1738940;80;20972;-58
2022/06/13 11:46:56;;;;;;;6.22;4.50;;;;;;;35.88;35.89;99704.79;1723574;80;21046;-63
2022/06/13 11:49:33;;;;;;;5.85;4.10;;;;;;;35.94;35.27;99694.62;1724485;80;21124;-57
2022/06/13 11:55:19;;;;;;;5.83;4.05;;;;;;;35.18;36.36;99694.64;1740156;81;21368;-57
2022/06/13 11:57:58;;;;;;;9.68;4.42;;;;;;;34.78;36.34;99700.52;1717326;81;21513;-65
2022/06/13 12:02:56;;;;;;;5.62;4.62;;;;;;;33.93;37.76;99691.42;1739627;80;21873;-57
2022/06/13 12:05:34;;;;;;;6.58;4.83;;;;;;;33.63;38.26;99681.89;1730269;80;21034;-58
2022/06/13 12:08:19;;;;;;;8.20;4.75;;;;;;;33.45;38.72;99683.94;1739171;80;21290;-59
2022/06/13 12:11:15;;;;;;;5.70;4.28;;;;;;;33.29;38.40;99674.51;1713196;83;20991;-59
2022/06/13 12:13:46;;;;;;;7.35;5.20;;;;;;;33.15;39.72;99674.97;1723801;82;21000;-57
2022/06/13 12:16:29;;;;;;;9.73;6.10;;;;;;;33.06;40.95;99674.34;1684280;84;21023;-57
2022/06/13 12:19:32;;;;;;;7.17;5.40;;;;;;;32.91;40.05;99672.59;1724393;82;22031;-57
2022/06/13 12:22:22;;;;;;;8.83;5.40;;;;;;;32.93;39.29;99670.38;1713364;83;21254;-66
2022/06/13 12:25:19;;;;;;;6.53;5.30;;;;;;;33.11;39.77;99665.42;1669862;84;21023;-59
2022/06/13 12:28:14;;;;;;;8.63;5.50;;;;;;;33.28;39.53;99666.97;1681983;84;21141;-57
2022/06/13 12:31:10;;;;;;;8.73;5.70;;;;;;;33.45;39.36;99665.81;1688772;84;20952;-57
2022/06/13 12:34:01;;;;;;;7.42;5.95;;;;;;;33.56;38.67;99666.09;1680782;84;21134;-57
2022/06/13 12:36:50;;;;;;;;;;;;;;;33.46;38.88;99663.38;1720004;82;21699;-56
2022/06/13 12:39:40;;;;;;;7.70;4.85;;;;;;;33.21;39.58;99666.02;1654951;84;20189;-55
2022/06/13 12:42:27;;;;;;;8.15;5.25;;;;;;;33.12;40.97;99666.98;1698278;82;22071;-64
2022/06/13 12:45:23;;;;;;;7.15;5.30;;;;;;;32.89;42.10;99657.89;1718746;82;21019;-56
2022/06/13 12:48:31;;;;;;;8.80;5.12;;;;;;;32.77;42.83;99654.70;1710709;82;21382;-61
2022/06/13 12:51:09;;;;;;;6.80;5.53;;;;;;;32.92;42.56;99654.48;1729799;82;21257;-63
2022/06/13 12:53:57;;;;;;;7.37;5.37;;;;;;;32.84;41.91;99654.08;1713045;82;21039;-61
2022/06/13 12:56:44;;;;;;;7.97;5.53;;;;;;;32.67;42.18;99648.46;1706619;82;21069;-58
2022/06/13 12:59:36;;;;;;;7.20;5.35;;;;;;;32.75;42.40;99648.08;1712085;82;21724;-59